Time;durP1;ratioP1;P1;durP2;ratioP2;P2;SDS_P1;SDS_P2;PMS_P1;PMS_P2;Temp;Humidity;BMP_temperature;BMP_pressure;BME280_temperature;BME280_humidity;BME280_pressure;Samples;Min_cycle;Max_cycle;Signal;HPM_P1;HPM_P2
2021/12/28 00:00:28;;;;;;;;;2.33;0.00;;;;;11.10;79.50;98974.31;5096690;27;45264;-69
2021/12/28 00:02:55;;;;;;;;;1.00;0.00;;;;;11.16;79.97;98976.91;5085820;27;45250;-69
2021/12/28 00:05:23;;;;;;;;;0.00;0.00;;;;;11.07;80.95;98961.13;5092398;27;45509;-69
2021/12/28 00:07:50;;;;;;;;;0.00;0.00;;;;;11.12;79.46;98961.97;5085015;27;47851;-69
2021/12/28 00:10:17;;;;;;;;;1.33;1.00;;;;;11.10;80.98;98955.81;5091272;27;45427;-68
2021/12/28 00:12:44;;;;;;;;;0.67;0.67;;;;;11.09;80.02;98956.69;5084463;27;45161;-67
2021/12/28 00:18:04;;;;;;;;;1.67;0.00;;;;;11.14;79.88;98947.81;5086350;27;47977;-67
2021/12/28 00:20:35;;;;;;;;;0.33;0.33;;;;;11.10;79.64;98946.13;5090088;27;45395;-67
2021/12/28 00:23:04;;;;;;;;;1.00;0.00;;;;;11.09;79.85;98946.09;5083438;27;45638;-67
2021/12/28 00:25:30;;;;;;;;;0.00;0.00;;;;;11.12;80.35;98954.91;5091888;27;45399;-68
2021/12/28 00:27:55;;;;;;;;;0.00;0.00;;;;;11.09;79.21;98949.66;5098280;27;45371;-68
2021/12/28 00:30:22;;;;;;;;;0.00;0.00;;;;;11.12;80.83;98947.00;5085901;27;45256;-67
2021/12/28 00:32:52;;;;;;;;;1.00;1.00;;;;;11.03;80.09;98928.53;5082913;27;45373;-68
2021/12/28 00:35:22;;;;;;;;;1.67;1.00;;;;;11.06;79.97;98939.09;5089344;27;45592;-67
2021/12/28 00:37:48;;;;;;;;;0.00;0.00;;;;;11.07;80.66;98937.34;5087429;27;48762;-67
2021/12/28 00:40:13;;;;;;;;;0.00;0.00;;;;;11.04;80.65;98930.31;5094300;27;45385;-68
2021/12/28 00:42:39;;;;;;;;;0.00;0.00;;;;;11.00;79.55;98922.41;5081604;27;45270;-68
2021/12/28 00:45:04;;;;;;;;;2.00;1.00;;;;;11.09;80.62;98928.50;5090715;27;45631;-67
2021/12/28 00:47:30;;;;;;;;;0.00;0.00;;;;;11.04;80.40;98929.44;5094588;27;47193;-68
2021/12/28 00:49:56;;;;;;;;;0.33;0.33;;;;;11.08;80.49;98925.84;5091379;27;45265;-68
2021/12/28 00:52:21;;;;;;;;;3.00;1.00;;;;;11.08;80.29;98925.84;5078669;27;45273;-68
2021/12/28 00:54:47;;;;;;;;;0.00;0.00;;;;;11.04;79.92;98911.78;5088960;27;45402;-68
2021/12/28 00:57:12;;;;;;;;;1.00;0.00;;;;;11.10;80.10;98932.91;5090676;27;45313;-68
2021/12/28 00:59:37;;;;;;;;;1.00;1.00;;;;;11.04;80.68;98922.38;5086746;27;45159;-68
2021/12/28 01:02:03;;;;;;;;;1.00;1.00;;;;;11.10;80.46;98922.31;5091094;27;45242;-68
2021/12/28 01:04:28;;;;;;;;;1.00;1.00;;;;;11.09;81.19;98923.22;5082656;27;45410;-68
2021/12/28 01:06:54;;;;;;;;;1.00;1.00;;;;;11.06;80.80;98911.75;5090260;27;46226;-68
2021/12/28 01:09:19;;;;;;;;;0.33;0.00;;;;;11.09;80.27;98925.88;5088198;27;45361;-68
2021/12/28 01:11:45;;;;;;;;;2.00;1.00;;;;;11.11;80.97;98928.47;5088522;27;45397;-68
2021/12/28 01:14:10;;;;;;;;;0.00;0.00;;;;;11.08;79.98;98929.38;5086216;27;45463;-68
2021/12/28 01:16:35;;;;;;;;;0.00;0.00;;;;;11.18;81.50;98949.56;5088680;27;46303;-68
2021/12/28 01:19:01;;;;;;;;;0.00;0.00;;;;;11.15;81.17;98946.97;5085218;27;45517;-68
2021/12/28 01:21:26;;;;;;;;;0.00;0.00;;;;;11.23;81.20;98946.91;5087537;27;45307;-68
2021/12/28 01:23:52;;;;;;;;;0.00;0.00;;;;;11.24;80.67;98935.44;5083875;27;45350;-68
2021/12/28 01:26:17;;;;;;;;;0.00;0.00;;;;;11.28;80.23;98936.28;5079986;27;45678;-68
2021/12/28 01:28:43;;;;;;;;;0.00;0.00;;;;;11.32;80.50;98941.53;5081610;27;45603;-68
2021/12/28 01:31:08;;;;;;;;;0.00;0.00;;;;;11.27;79.99;98926.59;5085501;27;45334;-68
2021/12/28 01:33:34;;;;;;;;;1.00;0.00;;;;;11.33;80.54;98929.19;5083630;27;45406;-68
2021/12/28 01:35:59;;;;;;;;;0.00;0.00;;;;;11.32;80.92;98922.16;5086825;27;46556;-68
2021/12/28 01:38:25;;;;;;;;;0.00;0.00;;;;;11.43;79.93;98941.44;5088291;27;45724;-68
2021/12/28 01:40:52;;;;;;;;;0.67;0.00;;;;;11.43;80.44;98947.59;5087187;27;45341;-68
2021/12/28 01:43:23;;;;;;;;;0.00;0.00;;;;;11.39;80.24;98945.84;5082002;27;45233;-68
2021/12/28 01:45:53;;;;;;;;;0.00;0.00;;;;;11.43;80.42;98949.38;5084924;27;45366;-68
2021/12/28 01:48:28;;;;;;;;;0.00;0.00;;;;;11.35;79.98;98935.34;5085029;27;45355;-68
2021/12/28 01:50:58;;;;;;;;;0.00;0.00;;;;;11.36;80.13;98952.94;5082173;27;45416;-68
2021/12/28 01:53:25;;;;;;;;;0.67;0.00;;;;;11.39;79.59;98940.56;5101316;27;46300;-68
2021/12/28 01:55:53;;;;;;;;;0.00;0.00;;;;;11.47;80.17;98971.38;5094645;27;45417;-68
2021/12/28 01:58:19;;;;;;;;;0.00;0.00;;;;;11.54;79.52;98981.91;5088097;27;45292;-68
2021/12/28 02:00:48;;;;;;;;;0.00;0.00;;;;;11.52;80.64;98983.69;5094226;27;45546;-68
2021/12/28 02:03:16;;;;;;;;;1.00;0.00;;;;;11.57;80.21;98983.66;5085696;27;45513;-68
2021/12/28 02:05:42;;;;;;;;;0.00;0.00;;;;;11.63;79.33;98992.41;5099287;27;46082;-68
2021/12/28 02:08:09;;;;;;;;;0.00;0.00;;;;;11.60;79.78;98999.50;5086438;27;45281;-68
2021/12/28 02:10:36;;;;;;;;;0.00;0.00;;;;;11.67;79.41;99010.91;5098338;27;46369;-68
2021/12/28 02:13:04;;;;;;;;;0.00;0.00;;;;;11.70;79.02;99016.16;5099050;27;45543;-68
2021/12/28 02:15:29;;;;;;;;;0.67;0.00;;;;;11.73;79.24;99021.41;5095215;27;45570;-68
2021/12/28 02:17:55;;;;;;;;;1.67;0.00;;;;;11.67;78.98;99008.25;5098960;27;45478;-68
2021/12/28 02:20:21;;;;;;;;;0.33;0.00;;;;;11.76;79.10;99035.53;5093287;27;45425;-68
2021/12/28 02:22:47;;;;;;;;;0.00;0.00;;;;;11.65;78.84;99027.69;5084047;27;45408;-68
2021/12/28 02:25:15;;;;;;;;;0.00;0.00;;;;;11.71;78.34;99031.16;5091254;27;46703;-68
2021/12/28 02:27:40;;;;;;;;;0.00;0.00;;;;;11.70;78.36;99047.91;5097004;27;45271;-68
2021/12/28 02:30:14;;;;;;;;;0.00;0.00;;;;;11.65;78.08;99059.44;5090221;27;45432;-68
2021/12/28 02:32:40;;;;;;;;;0.00;0.00;;;;;11.59;77.87;99051.53;5090036;27;46401;-68
2021/12/28 02:35:15;;;;;;;;;0.00;0.00;;;;;11.45;77.95;99034.88;5092817;27;45583;-68
2021/12/28 02:37:41;;;;;;;;;0.00;0.00;;;;;11.64;78.49;99081.47;5087887;27;46109;-68
2021/12/28 02:40:08;;;;;;;;;0.00;0.00;;;;;11.55;77.99;99083.34;5092900;27;45500;-68
2021/12/28 02:42:34;;;;;;;;;0.00;0.00;;;;;11.55;78.04;99093.91;5082799;27;45357;-68
2021/12/28 02:45:12;;;;;;;;;0.00;0.00;;;;;11.30;78.21;99059.69;5108261;27;45911;-68
2021/12/28 02:47:43;;;;;;;;;0.00;0.00;;;;;11.48;77.60;99108.94;5091232;27;45674;-68
2021/12/28 02:50:13;;;;;;;;;0.00;0.00;;;;;11.41;78.07;99104.59;5091440;27;45407;-68
2021/12/28 02:52:38;;;;;;;;;0.00;0.00;;;;;11.37;78.50;99116.06;5082329;27;45461;-68
2021/12/28 02:55:07;;;;;;;;;1.00;0.00;;;;;11.31;78.96;99114.34;5091991;27;46091;-68
2021/12/28 02:57:33;;;;;;;;;2.00;0.00;;;;;11.33;78.26;99125.78;5088170;27;45474;-68
2021/12/28 02:59:58;;;;;;;;;0.00;0.00;;;;;11.24;78.07;99120.56;5095130;27;45452;-68
2021/12/28 03:02:23;;;;;;;;;0.00;0.00;;;;;11.33;78.51;99148.72;5087091;27;46690;-68
2021/12/28 03:04:49;;;;;;;;;0.00;0.00;;;;;11.28;78.97;99143.44;5088901;27;48532;-68
2021/12/28 03:07:14;;;;;;;;;0.00;0.00;;;;;11.26;78.69;99141.69;5089160;27;45429;-68
2021/12/28 03:09:40;;;;;;;;;0.00;0.00;;;;;11.25;78.57;99138.19;5089153;27;45246;-68
2021/12/28 03:12:06;;;;;;;;;0.00;0.00;;;;;11.23;78.91;99129.41;5088052;27;45853;-68
2021/12/28 03:14:32;;;;;;;;;0.00;0.00;;;;;11.34;78.53;99147.81;5086266;27;47545;-68
2021/12/28 03:16:57;;;;;;;;;1.00;0.00;;;;;11.34;78.83;99145.19;5089329;27;45340;-68
2021/12/28 03:19:23;;;;;;;;;0.00;0.00;;;;;11.31;78.13;99135.50;5086391;27;45354;-68
2021/12/28 03:21:50;;;;;;;;;0.00;0.00;;;;;11.30;78.17;99136.41;5088311;27;45301;-68
2021/12/28 03:24:16;;;;;;;;;2.00;0.00;;;;;11.35;77.77;99144.31;5100866;27;47769;-68
2021/12/28 03:26:42;;;;;;;;;0.00;0.00;;;;;11.12;78.60;99112.72;5087288;27;45413;-68
2021/12/28 03:29:08;;;;;;;;;1.00;0.00;;;;;11.26;78.39;99141.69;5084373;27;45457;-68
2021/12/28 03:31:33;;;;;;;;;0.00;0.00;;;;;11.20;78.28;99139.97;5086524;27;45523;-68
2021/12/28 03:33:59;;;;;;;;;0.00;0.00;;;;;11.31;78.19;99150.50;5088581;27;45250;-68
2021/12/28 03:36:28;;;;;;;;;1.00;0.00;;;;;11.37;78.90;99167.22;5085487;27;45145;-68
2021/12/28 03:38:54;;;;;;;;;1.33;0.00;;;;;11.29;78.88;99154.94;5094545;27;45551;-68
2021/12/28 03:41:22;;;;;;;;;0.00;0.00;;;;;11.40;78.28;99168.97;5086480;27;45419;-68
2021/12/28 03:43:52;;;;;;;;;0.00;0.00;;;;;11.35;78.29;99168.13;5086667;27;45418;-68
2021/12/28 03:46:19;;;;;;;;;0.00;0.00;;;;;11.30;79.13;99156.69;5094456;27;45257;-68
2021/12/28 03:48:45;;;;;;;;;0.00;0.00;;;;;11.35;78.60;99169.00;5086677;27;45393;-68
2021/12/28 03:51:11;;;;;;;;;1.67;0.00;;;;;11.39;78.82;99176.00;5088126;27;45319;-67
2021/12/28 03:53:37;;;;;;;;;1.00;0.00;;;;;11.35;78.37;99166.34;5087176;27;45334;-68
2021/12/28 03:56:05;;;;;;;;;0.67;0.00;;;;;11.35;78.75;99176.06;5094534;27;45438;-67
2021/12/28 03:58:30;;;;;;;;;0.00;0.00;;;;;11.41;78.82;99179.53;5099248;27;45395;-67
2021/12/28 04:00:56;;;;;;;;;0.00;0.00;;;;;11.36;78.99;99176.03;5093018;27;45235;-67
2021/12/28 04:03:22;;;;;;;;;0.67;0.00;;;;;11.14;78.13;99151.44;5082997;27;46922;-68
2021/12/28 04:05:47;;;;;;;;;1.33;0.33;;;;;11.38;78.45;99176.91;5087018;27;45265;-68
2021/12/28 04:08:20;;;;;;;;;0.00;0.00;;;;;11.41;78.48;99191.91;5084229;27;45511;-68
2021/12/28 04:10:55;;;;;;;;;0.33;0.33;;;;;11.34;78.82;99166.34;5091324;27;45407;-68
2021/12/28 04:13:22;;;;;;;;;2.00;0.00;;;;;11.37;78.25;99175.16;5082276;27;46368;-68
2021/12/28 04:15:48;;;;;;;;;0.33;0.00;;;;;11.48;78.37;99188.31;5093280;27;45224;-68
2021/12/28 04:18:16;;;;;;;;;0.00;0.00;;;;;11.41;77.95;99176.91;5098705;27;45259;-68
2021/12/28 04:20:42;;;;;;;;;0.00;0.00;;;;;11.46;78.50;99181.31;5090790;27;45358;-68
2021/12/28 04:23:08;;;;;;;;;0.00;0.00;;;;;11.43;78.04;99168.97;5083045;27;45682;-68
2021/12/28 04:25:34;;;;;;;;;0.67;0.67;;;;;11.47;78.33;99175.97;5089349;27;45335;-67
2021/12/28 04:27:59;;;;;;;;;0.00;0.00;;;;;11.49;77.69;99181.28;5083089;27;45364;-68
2021/12/28 04:30:25;;;;;;;;;1.67;0.00;;;;;11.54;78.15;99198.88;5086692;27;45451;-68
2021/12/28 04:32:50;;;;;;;;;0.67;0.00;;;;;11.53;78.29;99202.41;5082611;27;45418;-68
2021/12/28 04:35:16;;;;;;;;;0.00;0.00;;;;;11.57;78.13;99200.66;5089867;27;45286;-68
2021/12/28 04:37:42;;;;;;;;;1.33;0.00;;;;;11.65;77.52;99215.59;5087628;27;45555;-68
2021/12/28 04:40:09;;;;;;;;;1.00;0.00;;;;;11.62;78.37;99212.97;5090737;27;45538;-67
2021/12/28 04:42:35;;;;;;;;;0.00;0.00;;;;;11.67;77.79;99212.91;5096160;27;49070;-68
2021/12/28 04:45:00;;;;;;;;;0.67;0.00;;;;;11.56;77.63;99186.50;5091264;27;45419;-68
2021/12/28 04:47:26;;;;;;;;;2.00;1.00;;;;;11.69;77.69;99199.69;5104233;27;45359;-68
2021/12/28 04:49:51;;;;;;;;;0.67;0.00;;;;;11.61;77.29;99179.44;5090885;27;45268;-67
2021/12/28 04:52:17;;;;;;;;;0.00;0.00;;;;;11.81;77.74;99212.84;5078690;28;47601;-68
2021/12/28 04:54:43;;;;;;;;;0.00;0.00;;;;;11.75;77.65;99197.88;5086962;27;45444;-68
2021/12/28 04:57:08;;;;;;;;;0.00;0.00;;;;;11.67;77.76;99188.22;5092633;27;45437;-68
2021/12/28 04:59:34;;;;;;;;;0.00;0.00;;;;;11.82;76.86;99204.03;5086296;27;45428;-67
2021/12/28 05:02:00;;;;;;;;;1.67;0.00;;;;;11.79;77.35;99204.00;5090934;27;48261;-67
2021/12/28 05:04:25;;;;;;;;;3.00;0.00;;;;;11.82;77.52;99225.22;5089214;27;45220;-67
2021/12/28 05:06:53;;;;;;;;;1.00;0.00;;;;;11.82;77.20;99225.22;5097919;27;45287;-67
2021/12/28 05:09:18;;;;;;;;;0.00;0.00;;;;;11.81;76.88;99218.13;5105329;27;46391;-67
2021/12/28 05:11:45;;;;;;;;;1.67;0.00;;;;;11.80;76.58;99214.59;5106139;27;48068;-67
2021/12/28 05:14:11;;;;;;;;;1.00;0.00;;;;;11.89;76.40;99231.38;5085483;27;45327;-67
2021/12/28 05:16:36;;;;;;;;;1.00;0.00;;;;;11.87;76.40;99239.31;5091924;27;45402;-67
2021/12/28 05:19:06;;;;;;;;;0.33;0.00;;;;;11.88;76.37;99243.72;5085295;27;45347;-67
2021/12/28 05:21:33;;;;;;;;;0.33;0.00;;;;;11.92;76.89;99253.41;5087532;27;45628;-67
2021/12/28 05:23:58;;;;;;;;;1.00;0.00;;;;;11.81;75.95;99239.31;5083740;27;45418;-67
2021/12/28 05:26:24;;;;;;;;;0.67;0.00;;;;;11.85;76.55;99247.28;5086747;27;45316;-67
2021/12/28 05:28:50;;;;;;;;;0.33;0.00;;;;;11.85;76.15;99254.31;5082995;27;45391;-67
2021/12/28 05:31:16;;;;;;;;;1.67;0.00;;;;;11.99;76.25;99275.44;5085329;27;46657;-68
2021/12/28 05:33:42;;;;;;;;;0.00;0.00;;;;;11.85;76.42;99251.66;5084135;27;45351;-68
2021/12/28 05:36:08;;;;;;;;;1.67;0.00;;;;;11.94;76.10;99271.94;5086228;27;45356;-68
2021/12/28 05:38:34;;;;;;;;;1.00;0.00;;;;;11.95;75.83;99269.25;5089554;27;45616;-68
2021/12/28 05:40:59;;;;;;;;;0.33;0.00;;;;;11.83;76.11;99250.78;5088889;27;46861;-68
2021/12/28 05:43:25;;;;;;;;;1.33;0.00;;;;;11.91;76.06;99269.31;5082073;27;45234;-67
2021/12/28 05:45:50;;;;;;;;;0.00;0.00;;;;;12.02;75.52;99291.31;5092702;27;45226;-67
2021/12/28 05:48:16;;;;;;;;;0.67;0.67;;;;;11.90;76.23;99268.41;5085680;27;45587;-67
2021/12/28 05:50:41;;;;;;;;;0.00;0.00;;;;;12.01;75.86;99294.81;5088150;27;45630;-67
2021/12/28 05:53:07;;;;;;;;;0.00;0.00;;;;;12.01;75.98;99301.00;5080919;27;45652;-68
2021/12/28 05:55:33;;;;;;;;;0.00;0.00;;;;;12.03;75.37;99295.72;5097698;27;45313;-68
2021/12/28 05:57:58;;;;;;;;;0.00;0.00;;;;;11.98;75.57;99290.44;5084654;27;45564;-68
2021/12/28 06:00:24;;;;;;;;;0.00;0.00;;;;;12.03;75.75;99304.53;5090639;27;46744;-68
2021/12/28 06:02:49;;;;;;;;;0.67;0.00;;;;;12.01;75.24;99297.47;5085406;27;45218;-68
2021/12/28 06:05:15;;;;;;;;;0.00;0.00;;;;;11.99;75.13;99291.34;5089699;27;45557;-68
2021/12/28 06:07:41;;;;;;;;;2.00;0.00;;;;;11.99;75.43;99292.22;5079210;27;45374;-68
2021/12/28 06:10:07;;;;;;;;;1.00;0.33;;;;;12.02;75.36;99305.44;5091356;27;45336;-67
2021/12/28 06:12:33;;;;;;;;;0.00;0.00;;;;;12.01;74.57;99308.06;5084119;27;45311;-68
2021/12/28 06:14:58;;;;;;;;;0.00;0.00;;;;;12.05;74.90;99313.34;5089373;27;45312;-68
2021/12/28 06:17:24;;;;;;;;;3.67;1.00;;;;;12.05;74.82;99313.34;5082630;27;46799;-68
2021/12/28 06:19:50;;;;;;;;;0.00;0.00;;;;;12.07;74.88;99315.97;5089901;27;45412;-68
2021/12/28 06:22:15;;;;;;;;;1.00;1.00;;;;;12.14;74.02;99335.38;5096149;27;45327;-68
2021/12/28 06:24:41;;;;;;;;;0.00;0.00;;;;;12.13;74.21;99334.50;5085596;27;45203;-68
2021/12/28 06:27:07;;;;;;;;;0.00;0.00;;;;;12.12;74.41;99345.09;5084210;27;45390;-68
2021/12/28 06:29:32;;;;;;;;;4.00;1.00;;;;;12.05;74.48;99339.84;5081863;27;46471;-68
2021/12/28 06:31:57;;;;;;;;;0.33;0.33;;;;;12.07;73.73;99339.81;5084106;27;45251;-68
2021/12/28 06:34:23;;;;;;;;;1.33;0.00;;;;;12.09;73.57;99364.53;5084652;27;45194;-68
2021/12/28 06:36:48;;;;;;;;;3.00;0.33;;;;;12.13;74.46;99366.28;5082432;27;45376;-68
2021/12/28 06:39:14;;;;;;;;;1.00;0.00;;;;;12.03;73.86;99361.91;5093494;27;45621;-68
2021/12/28 06:41:40;;;;;;;;;0.00;0.00;;;;;12.07;73.90;99380.44;5084759;27;45534;-69
2021/12/28 06:44:09;;;;;;;;;0.00;0.00;;;;;12.06;74.59;99397.19;5091154;27;45452;-68
2021/12/28 06:46:38;;;;;;;;;1.00;1.00;;;;;11.99;73.15;99386.66;5092726;27;45569;-67
2021/12/28 06:49:04;;;;;;;;;1.00;0.67;;;;;11.92;73.19;99380.50;5088732;27;46250;-68
2021/12/28 06:51:30;;;;;;;;;3.67;1.00;;;;;11.97;74.11;99397.25;5095149;27;45431;-68
2021/12/28 06:53:56;;;;;;;;;0.00;0.00;;;;;11.93;72.99;99378.72;5087702;27;45548;-68
2021/12/28 06:56:21;;;;;;;;;0.00;0.00;;;;;11.88;73.85;99367.28;5094219;27;45404;-67
2021/12/28 06:58:47;;;;;;;;;1.00;1.00;;;;;11.88;72.96;99369.94;5087002;27;46769;-68
2021/12/28 07:01:12;;;;;;;;;3.00;1.33;;;;;11.94;72.88;99381.38;5096976;27;45274;-67
2021/12/28 07:03:38;;;;;;;;;2.00;1.00;;;;;11.92;73.06;99380.50;5087201;27;45716;-67
2021/12/28 07:06:03;;;;;;;;;1.00;1.00;;;;;11.98;73.18;99398.13;5091326;27;45330;-68
2021/12/28 07:08:28;;;;;;;;;2.00;0.33;;;;;11.91;73.21;99386.69;5084192;27;45509;-68
2021/12/28 07:10:54;;;;;;;;;5.33;1.00;;;;;11.88;72.80;99378.75;5093998;27;45377;-68
2021/12/28 07:13:20;;;;;;;;;0.33;0.33;;;;;11.94;71.98;99385.81;5082757;27;45304;-68
2021/12/28 07:15:45;;;;;;;;;2.00;1.00;;;;;11.96;72.01;99395.50;5090183;27;46091;-67
2021/12/28 07:18:10;;;;;;;;;4.00;1.33;;;;;11.90;73.01;99382.25;5098349;27;47390;-68
2021/12/28 07:20:36;;;;;;;;;4.67;0.33;;;;;11.99;72.57;99395.47;5090281;27;45744;-67
2021/12/28 07:23:02;;;;;;;;;0.00;0.00;;;;;11.98;72.00;99398.13;5084163;27;45402;-68
2021/12/28 07:25:28;;;;;;;;;3.00;1.67;;;;;11.97;72.42;99399.91;5087201;27;45409;-67
2021/12/28 07:27:54;;;;;;;;;4.33;2.00;;;;;11.96;72.68;99400.78;5083688;27;46101;-67
2021/12/28 07:30:19;;;;;;;;;1.00;1.00;;;;;11.99;72.43;99406.06;5096557;27;46007;-67
2021/12/28 07:32:44;;;;;;;;;2.00;1.00;;;;;11.93;73.21;99394.59;5082466;27;45763;-67
2021/12/28 07:35:11;;;;;;;;;5.00;1.00;;;;;11.92;72.64;99396.38;5091908;27;45579;-68
2021/12/28 07:37:37;;;;;;;;;2.00;1.00;;;;;11.95;72.32;99398.13;5086928;27;48059;-67
2021/12/28 07:40:04;;;;;;;;;5.00;1.00;;;;;12.01;72.26;99420.16;5092296;27;45671;-68
2021/12/28 07:42:29;;;;;;;;;1.00;1.00;;;;;11.98;72.38;99406.94;5081321;27;45266;-67
2021/12/28 07:44:55;;;;;;;;;3.67;1.67;;;;;12.01;72.29;99424.59;5093428;27;47304;-67
2021/12/28 07:47:20;;;;;;;;;0.00;0.00;;;;;11.96;72.48;99415.78;5105113;27;46978;-67
2021/12/28 07:49:45;;;;;;;;;1.33;0.33;;;;;11.95;72.60;99435.22;5092479;27;45382;-68
2021/12/28 07:52:11;;;;;;;;;1.67;1.00;;;;;11.97;73.07;99446.69;5080045;27;45326;-67
2021/12/28 07:54:36;;;;;;;;;2.00;1.00;;;;;11.98;72.92;99457.25;5087293;27;45465;-67
2021/12/28 07:57:02;;;;;;;;;2.00;1.00;;;;;12.00;73.05;99444.91;5092267;27;47848;-67
2021/12/28 07:59:28;;;;;;;;;6.67;2.00;;;;;11.90;72.94;99431.69;5090432;27;45241;-67
2021/12/28 08:01:53;;;;;;;;;0.00;0.00;;;;;12.01;72.86;99446.66;5092967;27;45905;-67
2021/12/28 08:04:19;;;;;;;;;4.00;1.00;;;;;11.98;73.15;99457.25;5086725;27;46200;-67
2021/12/28 08:06:45;;;;;;;;;1.00;1.00;;;;;11.99;72.94;99466.13;5093118;27;46648;-67
2021/12/28 08:09:11;;;;;;;;;1.00;1.00;;;;;12.03;73.31;99476.66;5086302;27;45376;-67
2021/12/28 08:11:37;;;;;;;;;0.00;0.00;;;;;11.96;73.40;99460.78;5089834;27;45319;-67
2021/12/28 08:14:02;;;;;;;;;0.00;0.00;;;;;12.00;73.87;99476.69;5086360;27;45369;-67
2021/12/28 08:16:28;;;;;;;;;2.00;0.00;;;;;11.95;73.49;99474.94;5089235;27;45460;-67
2021/12/28 08:18:53;;;;;;;;;2.00;0.33;;;;;12.00;73.78;99499.63;5093020;27;45676;-67
2021/12/28 08:21:19;;;;;;;;;2.00;0.00;;;;;11.94;74.27;99479.34;5092093;27;45375;-67
2021/12/28 08:23:44;;;;;;;;;2.00;0.33;;;;;12.00;74.13;99502.28;5092550;27;45366;-67
2021/12/28 08:26:10;;;;;;;;;1.67;0.00;;;;;12.00;73.54;99500.50;5085908;27;46412;-67
2021/12/28 08:28:35;;;;;;;;;1.33;1.00;;;;;12.02;73.84;99500.53;5083511;27;45474;-67
2021/12/28 08:31:01;;;;;;;;;0.00;0.00;;;;;12.01;73.42;99501.38;5089139;27;45358;-67
2021/12/28 08:33:28;;;;;;;;;3.33;1.00;;;;;12.09;73.49;99513.72;5082622;27;45492;-66
2021/12/28 08:35:54;;;;;;;;;0.33;0.33;;;;;12.12;73.57;99517.25;5090573;27;47169;-66
2021/12/28 08:38:19;;;;;;;;;2.00;0.67;;;;;12.06;73.35;99515.50;5089851;27;45362;-66
2021/12/28 08:40:45;;;;;;;;;0.00;0.00;;;;;12.09;73.53;99523.44;5106034;27;45275;-67
2021/12/28 08:43:11;;;;;;;;;1.00;0.00;;;;;12.08;73.88;99524.34;5100297;27;45358;-67
2021/12/28 08:45:40;;;;;;;;;1.00;0.00;;;;;12.11;73.78;99531.41;5091116;27;46364;-66
2021/12/28 08:48:10;;;;;;;;;1.33;0.00;;;;;12.12;74.60;99544.63;5087470;27;45173;-69
2021/12/28 08:50:37;;;;;;;;;0.00;0.00;;;;;12.11;73.89;99537.56;5089843;27;45405;-66
2021/12/28 08:53:02;;;;;;;;;2.33;1.00;;;;;12.07;74.68;99528.75;5085786;27;45321;-67
2021/12/28 08:55:27;;;;;;;;;2.33;1.00;;;;;11.96;74.42;99498.78;5090897;27;46286;-66
2021/12/28 08:57:53;;;;;;;;;1.00;1.00;;;;;11.99;74.34;99512.00;5086539;27;45847;-67
2021/12/28 09:00:24;;;;;;;;;3.00;0.00;;;;;12.03;74.93;99529.63;5092762;27;45338;-67
2021/12/28 09:02:52;;;;;;;;;0.00;0.00;;;;;12.02;74.98;99538.47;5083531;27;45823;-68
2021/12/28 09:05:18;;;;;;;;;0.67;0.67;;;;;11.99;74.52;99521.72;5090198;27;45457;-67
2021/12/28 09:07:43;;;;;;;;;3.00;0.00;;;;;11.99;74.89;99524.38;5083396;27;45479;-67
2021/12/28 09:10:09;;;;;;;;;3.67;1.00;;;;;11.98;74.61;99533.19;5090983;27;45331;-68
2021/12/28 09:12:34;;;;;;;;;1.00;0.00;;;;;11.98;74.08;99531.41;5084212;27;45322;-67
2021/12/28 09:15:00;;;;;;;;;2.00;0.33;;;;;12.06;73.86;99553.47;5088534;27;46713;-68
2021/12/28 09:17:25;;;;;;;;;0.67;0.67;;;;;11.89;73.43;99522.63;5083659;27;45169;-68
2021/12/28 09:19:51;;;;;;;;;2.00;1.00;;;;;11.99;72.67;99530.53;5090831;27;45389;-67
2021/12/28 09:22:16;;;;;;;;;1.67;1.00;;;;;12.00;73.13;99540.25;5083684;27;45609;-68
2021/12/28 09:24:41;;;;;;;;;1.00;1.00;;;;;11.88;72.21;99519.09;5083269;27;46780;-68
2021/12/28 09:27:07;;;;;;;;;3.00;1.00;;;;;11.92;72.66;99533.19;5083625;27;45320;-68
2021/12/28 09:29:33;;;;;;;;;1.67;0.67;;;;;12.02;72.19;99549.06;5090491;27;45209;-68
2021/12/28 09:32:00;;;;;;;;;1.67;0.00;;;;;12.02;71.66;99549.06;5079685;27;45278;-67
2021/12/28 09:34:26;;;;;;;;;0.33;0.33;;;;;11.95;72.25;99536.72;5100697;27;46369;-67
2021/12/28 09:36:53;;;;;;;;;2.00;1.00;;;;;11.98;71.40;99542.00;5110660;27;45320;-67
2021/12/28 09:39:24;;;;;;;;;0.67;0.67;;;;;12.01;71.01;99549.06;5105895;27;45528;-67
2021/12/28 09:41:51;;;;;;;;;3.00;1.00;;;;;12.02;71.26;99559.66;5112072;27;45270;-67
2021/12/28 09:44:17;;;;;;;;;0.67;0.67;;;;;12.04;71.27;99564.94;5092705;27;45512;-67
2021/12/28 09:46:42;;;;;;;;;1.33;1.33;;;;;11.84;69.67;99531.41;5089249;27;45370;-67
2021/12/28 09:49:08;;;;;;;;;3.00;0.00;;;;;11.98;70.78;99555.25;5085583;27;45426;-67
2021/12/28 09:51:33;;;;;;;;;3.00;1.00;;;;;12.05;70.24;99582.63;5093893;27;46636;-67
2021/12/28 09:53:59;;;;;;;;;2.00;1.00;;;;;12.03;70.19;99581.72;5091856;27;46411;-67
2021/12/28 09:56:24;;;;;;;;;2.67;2.67;;;;;12.02;70.25;99579.97;5090568;27;45795;-67
2021/12/28 09:58:50;;;;;;;;;4.00;1.00;;;;;12.03;69.34;99587.03;5087615;27;45446;-68
2021/12/28 10:01:15;;;;;;;;;3.67;2.00;;;;;11.92;69.80;99565.84;5093247;27;45961;-67
2021/12/28 10:03:41;;;;;;;;;3.00;1.00;;;;;12.03;69.07;99581.72;5084568;27;46359;-66
2021/12/28 10:06:22;;;;;;;;;2.67;2.00;;;;;11.93;67.68;99557.03;5100091;27;45735;-66
2021/12/28 10:09:02;;;;;;;;;4.33;2.67;;;;;12.04;68.32;99588.78;5096624;27;45452;-66
2021/12/28 10:11:35;;;;;;;;;2.00;1.00;;;;;11.98;67.83;99565.84;5089783;27;45500;-66
2021/12/28 10:14:20;;;;;;;;;4.00;3.00;;;;;11.94;66.86;99565.88;5088231;27;45511;-66
2021/12/28 10:16:48;;;;;;;;;2.67;2.33;;;;;11.98;66.53;99592.31;5090243;27;45646;-66
2021/12/28 10:19:36;;;;;;;;;4.33;3.00;;;;;12.02;67.21;99617.06;5084530;27;45420;-66
2021/12/28 10:22:20;;;;;;;;;4.00;2.33;;;;;12.00;67.09;99618.81;5093313;27;46369;-66
2021/12/28 10:24:47;;;;;;;;;3.33;1.33;;;;;11.99;67.07;99615.28;5085482;27;46167;-66
2021/12/28 10:27:16;;;;;;;;;6.33;3.00;;;;;11.95;66.54;99610.00;5085145;27;45333;-66
2021/12/28 10:29:42;;;;;;;;;5.00;2.00;;;;;11.96;66.05;99609.09;5093374;27;45378;-66
2021/12/28 10:32:22;;;;;;;;;5.00;2.00;;;;;11.90;66.81;99604.69;5081462;27;45341;-66
2021/12/28 10:34:51;;;;;;;;;7.00;5.00;;;;;11.99;66.06;99620.59;5093456;27;45685;-66
2021/12/28 10:37:21;;;;;;;;;4.00;3.00;;;;;12.00;66.14;99622.34;5099596;27;45417;-66
2021/12/28 10:39:49;;;;;;;;;3.00;2.67;;;;;12.00;65.34;99640.88;5094832;27;45427;-67
2021/12/28 10:42:48;;;;;;;;;5.33;2.67;;;;;12.02;65.61;99632.94;5089078;27;45303;-66
2021/12/28 10:45:24;;;;;;;;;6.67;2.67;;;;;12.03;65.67;99640.00;5091416;27;46510;-66
2021/12/28 10:47:51;;;;;;;;;5.00;3.00;;;;;11.99;65.70;99633.84;5083274;27;45248;-66
2021/12/28 10:50:28;;;;;;;;;6.33;3.00;;;;;12.02;65.69;99627.66;5087221;27;45444;-66
2021/12/28 10:53:10;;;;;;;;;5.00;4.00;;;;;12.08;65.27;99644.41;5082891;27;45465;-66
2021/12/28 10:55:37;;;;;;;;;4.67;3.33;;;;;12.11;65.20;99640.00;5089689;27;47103;-66
2021/12/28 10:58:05;;;;;;;;;6.67;2.00;;;;;12.03;64.79;99640.88;5096281;27;45338;-66
2021/12/28 11:00:42;;;;;;;;;12.33;5.67;;;;;12.12;64.98;99647.06;5096185;27;45361;-66
2021/12/28 11:03:17;;;;;;;;;3.67;2.00;;;;;12.14;64.65;99653.25;5085894;27;46941;-66
2021/12/28 11:05:50;;;;;;;;;5.00;4.00;;;;;12.15;64.22;99634.69;5095631;27;45624;-66
2021/12/28 11:08:17;;;;;;;;;6.33;4.00;;;;;12.09;64.37;99619.69;5097833;27;45330;-66
2021/12/28 11:10:46;;;;;;;;;7.33;3.00;;;;;12.13;64.18;99636.47;5094444;27;45376;-66
2021/12/28 11:13:12;;;;;;;;;6.33;3.00;;;;;12.14;64.38;99627.63;5084268;27;45339;-66
2021/12/28 11:15:44;;;;;;;;;3.00;3.00;;;;;12.29;64.75;99658.53;5091669;27;45484;-66
2021/12/28 11:18:17;;;;;;;;;1.67;1.00;;;;;12.20;63.98;99637.34;5084424;27;45227;-66
2021/12/28 11:20:43;;;;;;;;;6.33;5.33;;;;;12.25;64.51;99656.78;5092094;27;45481;-66
2021/12/28 11:23:08;;;;;;;;;7.33;2.67;;;;;12.36;62.95;99662.94;5098624;27;45352;-66
2021/12/28 11:25:33;;;;;;;;;10.00;4.00;;;;;12.36;62.95;99670.88;5087650;27;45424;-66
2021/12/28 11:28:20;;;;;;;;;7.33;4.33;;;;;12.38;63.01;99676.16;5084056;27;45253;-66
2021/12/28 11:31:01;;;;;;;;;3.67;2.00;;;;;12.34;62.08;99675.31;5090711;27;45282;-66
2021/12/28 11:33:40;;;;;;;;;6.00;2.67;;;;;12.47;62.57;99695.63;5083842;27;45400;-66
2021/12/28 11:36:05;;;;;;;;;3.67;2.33;;;;;12.46;61.32;99680.59;5084354;27;46611;-66